Time;durP1;ratioP1;P1;durP2;ratioP2;P2;SDS_P1;SDS_P2;PMS_P1;PMS_P2;Temp;Humidity;BMP_temperature;BMP_pressure;BME280_temperature;BME280_humidity;BME280_pressure;Samples;Min_cycle;Max_cycle;Signal;HPM_P1;HPM_P2
2021/01/11 00:01:19;;;;;;;24.87;18.67;;;4.70;99.90;;;;;;5013886;28;20894;-83
2021/01/11 00:03:47;;;;;;;27.43;19.70;;;4.70;99.90;;;;;;5014109;28;20292;-85
2021/01/11 00:06:13;;;;;;;30.43;20.23;;;4.70;99.90;;;;;;5014069;28;20167;-84
2021/01/11 00:08:38;;;;;;;28.40;19.50;;;4.70;99.90;;;;;;5014009;28;20905;-84
2021/01/11 00:11:04;;;;;;;28.23;19.90;;;4.70;99.90;;;;;;5013641;28;20518;-83
2021/01/11 00:13:34;;;;;;;24.47;17.20;;;4.70;99.90;;;;;;5013953;28;20316;-84
2021/01/11 00:16:00;;;;;;;26.97;19.10;;;4.70;99.90;;;;;;5012547;28;20561;-84
2021/01/11 00:18:26;;;;;;;27.57;19.30;;;4.70;99.90;;;;;;5012265;28;20425;-84
2021/01/11 00:20:51;;;;;;;28.93;19.17;;;4.70;99.90;;;;;;5012139;28;20182;-84
2021/01/11 00:23:17;;;;;;;24.73;18.03;;;4.70;99.90;;;;;;5012442;28;20175;-83
2021/01/11 00:25:42;;;;;;;26.80;17.73;;;4.80;99.90;;;;;;5011341;28;20167;-84
2021/01/11 00:28:08;;;;;;;31.73;21.00;;;4.80;99.90;;;;;;5013624;28;20213;-84
2021/01/11 00:30:33;;;;;;;28.83;19.90;;;4.80;99.90;;;;;;5013397;28;20250;-84
2021/01/11 00:32:59;;;;;;;29.67;20.57;;;4.80;99.90;;;;;;5013483;28;20171;-84
2021/01/11 00:35:25;;;;;;;21.30;16.87;;;4.70;99.90;;;;;;5013402;28;20174;-84
2021/01/11 00:37:50;;;;;;;25.10;17.97;;;4.70;99.90;;;;;;5013359;28;20202;-84
2021/01/11 00:40:16;;;;;;;31.47;19.20;;;4.70;99.90;;;;;;5008818;28;20171;-83
2021/01/11 00:42:41;;;;;;;30.70;19.73;;;4.70;99.90;;;;;;5009403;28;20194;-84
2021/01/11 00:45:08;;;;;;;27.73;19.23;;;4.70;99.90;;;;;;5013161;28;20186;-84
2021/01/11 00:47:41;;;;;;;27.93;18.40;;;4.70;99.90;;;;;;5013231;28;20177;-83
2021/01/11 00:50:08;;;;;;;26.43;18.97;;;4.70;99.90;;;;;;5012869;28;20410;-84
2021/01/11 00:52:35;;;;;;;31.57;19.50;;;4.80;99.90;;;;;;5011853;28;20501;-84
2021/01/11 00:55:01;;;;;;;33.53;20.10;;;4.80;99.90;;;;;;5011931;28;20825;-84
2021/01/11 00:57:27;;;;;;;28.57;19.50;;;4.80;99.90;;;;;;5011484;28;20565;-84
2021/01/11 00:59:52;;;;;;;29.27;19.17;;;4.80;99.90;;;;;;5011285;28;20527;-84
2021/01/11 01:02:18;;;;;;;28.83;20.10;;;4.80;99.90;;;;;;5012964;28;20171;-84
2021/01/11 01:04:44;;;;;;;28.10;18.60;;;4.80;99.90;;;;;;5012850;28;20174;-84
2021/01/11 01:07:09;;;;;;;34.00;21.37;;;4.90;99.90;;;;;;5027943;28;20438;-86
2021/01/11 01:09:35;;;;;;;31.10;20.17;;;4.90;99.90;;;;;;5012820;28;20170;-85
2021/01/11 01:12:04;;;;;;;32.33;20.57;;;4.90;99.90;;;;;;5011119;28;20540;-83
2021/01/11 01:14:29;;;;;;;33.70;22.33;;;4.90;99.90;;;;;;5011384;28;20266;-83
2021/01/11 01:16:55;;;;;;;31.13;18.27;;;4.90;99.90;;;;;;5011885;28;21077;-83
2021/01/11 01:19:21;;;;;;;32.07;20.53;;;4.90;99.90;;;;;;5012072;28;20755;-82
2021/01/11 01:21:46;;;;;;;34.80;20.57;;;4.80;99.90;;;;;;5012280;28;20230;-83
2021/01/11 01:24:12;;;;;;;32.10;21.20;;;4.80;99.90;;;;;;5012860;28;20221;-83
2021/01/11 01:26:37;;;;;;;35.53;21.70;;;4.80;99.90;;;;;;5023168;28;20189;-83
2021/01/11 01:29:03;;;;;;;37.10;22.13;;;4.80;99.90;;;;;;5012322;28;20175;-84
2021/01/11 01:31:29;;;;;;;32.77;20.30;;;4.80;99.90;;;;;;5025224;28;20179;-84
2021/01/11 01:33:54;;;;;;;36.97;21.80;;;4.80;99.90;;;;;;5002767;28;20254;-83
2021/01/11 01:36:20;;;;;;;34.40;21.63;;;4.80;99.90;;;;;;5001321;28;20612;-84
2021/01/11 01:38:46;;;;;;;34.50;20.20;;;4.80;99.90;;;;;;5019986;28;20182;-84
2021/01/11 01:41:12;;;;;;;31.40;20.70;;;4.80;99.90;;;;;;5006092;28;20179;-83
2021/01/11 01:43:37;;;;;;;32.23;22.07;;;4.80;99.90;;;;;;5009324;28;20452;-83
2021/01/11 01:46:05;;;;;;;35.37;22.53;;;4.90;99.90;;;;;;5020499;28;20185;-83
2021/01/11 01:48:31;;;;;;;32.27;21.17;;;4.80;99.90;;;;;;5006321;28;20183;-83
2021/01/11 01:50:57;;;;;;;42.17;23.13;;;4.80;99.90;;;;;;5004669;28;20933;-83
2021/01/11 01:53:23;;;;;;;44.00;24.47;;;4.90;99.90;;;;;;5005424;28;20217;-84
2021/01/11 01:55:49;;;;;;;34.37;21.90;;;4.80;99.90;;;;;;5020859;28;20465;-83
2021/01/11 01:58:17;;;;;;;38.57;24.03;;;4.90;99.90;;;;;;5003096;28;20175;-83
2021/01/11 02:00:42;;;;;;;36.40;25.27;;;4.80;99.90;;;;;;5020082;28;20481;-83
2021/01/11 02:03:08;;;;;;;39.00;25.67;;;4.80;99.90;;;;;;5020847;28;20468;-83
2021/01/11 02:05:34;;;;;;;37.13;24.57;;;4.80;99.90;;;;;;5019283;28;20536;-83
2021/01/11 02:07:59;;;;;;;43.17;25.43;;;4.80;99.90;;;;;;5020810;28;20181;-83
2021/01/11 02:10:25;;;;;;;37.50;24.83;;;4.80;99.90;;;;;;5005159;28;20168;-83
2021/01/11 02:13:15;;;;;;;35.13;19.10;;;4.80;99.90;;;;;;5002559;28;20230;-83
2021/01/11 02:15:51;;;;;;;37.60;24.50;;;4.70;99.90;;;;;;5003233;28;20222;-83
2021/01/11 02:18:42;;;;;;;35.40;23.70;;;4.70;99.90;;;;;;5019378;28;20418;-82
2021/01/11 02:21:08;;;;;;;36.00;22.40;;;4.80;99.90;;;;;;5004360;28;20421;-84
2021/01/11 02:23:56;;;;;;;41.53;24.07;;;4.80;99.90;;;;;;5003767;28;20432;-83
2021/01/11 02:26:58;;;;;;;36.60;24.00;;;4.80;99.90;;;;;;5019347;28;20426;-83
2021/01/11 02:30:00;;;;;;;36.10;23.00;;;4.80;99.90;;;;;;5020080;28;20527;-83
2021/01/11 02:32:28;;;;;;;40.40;21.57;;;4.80;99.90;;;;;;5005986;28;21025;-83
2021/01/11 02:34:55;;;;;;;41.63;23.10;;;4.80;99.90;;;;;;5018742;28;20427;-83
2021/01/11 02:37:21;;;;;;;33.87;22.70;;;4.80;99.90;;;;;;5019933;28;20462;-83
2021/01/11 02:39:47;;;;;;;38.73;22.20;;;4.80;99.90;;;;;;5020155;28;20423;-83
2021/01/11 02:42:12;;;;;;;40.07;23.43;;;4.80;99.90;;;;;;5003426;28;20674;-83
2021/01/11 02:44:38;;;;;;;38.20;23.67;;;4.70;99.90;;;;;;5004245;28;20443;-83
2021/01/11 02:47:04;;;;;;;36.33;21.97;;;4.70;99.90;;;;;;5005136;28;20254;-83
2021/01/11 02:49:38;;;;;;;38.83;24.87;;;4.70;99.90;;;;;;5018697;28;20168;-83
2021/01/11 02:52:47;;;;;;;42.83;24.87;;;4.70;99.90;;;;;;5003789;28;20171;-83
2021/01/11 02:55:22;;;;;;;47.43;26.20;;;4.70;99.90;;;;;;4991251;28;20501;-83
2021/01/11 02:58:01;;;;;;;40.67;25.10;;;4.60;99.90;;;;;;5014163;28;21057;-83
2021/01/11 03:00:28;;;;;;;42.57;26.47;;;4.60;99.90;;;;;;5005328;28;20449;-83
2021/01/11 03:02:56;;;;;;;38.33;26.67;;;4.60;99.90;;;;;;5004852;28;20419;-83
2021/01/11 03:05:23;;;;;;;39.80;24.77;;;4.60;99.90;;;;;;5018571;28;20484;-83
2021/01/11 03:07:55;;;;;;;47.90;28.40;;;4.50;99.90;;;;;;5004218;28;20883;-83
2021/01/11 03:10:21;;;;;;;41.70;26.00;;;4.60;99.90;;;;;;5006101;28;20938;-83
2021/01/11 03:12:47;;;;;;;42.70;25.53;;;4.50;99.90;;;;;;5005543;28;20460;-85
2021/01/11 03:15:13;;;;;;;42.43;25.00;;;4.50;99.90;;;;;;5003032;28;20182;-84
2021/01/11 03:17:39;;;;;;;45.77;24.50;;;4.50;99.90;;;;;;5003818;28;20209;-84
2021/01/11 03:20:05;;;;;;;42.13;25.40;;;4.50;99.90;;;;;;5020294;28;20418;-84
2021/01/11 03:22:30;;;;;;;36.70;22.77;;;4.50;99.90;;;;;;5004888;28;20254;-83
2021/01/11 03:24:56;;;;;;;44.83;27.80;;;4.50;99.90;;;;;;5002953;28;20505;-84
2021/01/11 03:27:21;;;;;;;49.40;27.67;;;4.50;99.90;;;;;;5003630;28;20869;-84
2021/01/11 03:29:47;;;;;;;43.40;27.03;;;4.50;99.90;;;;;;5004732;28;20189;-82
2021/01/11 03:32:12;;;;;;;44.67;27.50;;;4.50;99.90;;;;;;5002807;28;20182;-83
2021/01/11 03:34:38;;;;;;;47.83;27.70;;;4.50;99.90;;;;;;5003792;28;20253;-83
2021/01/11 03:37:03;;;;;;;45.80;26.80;;;4.60;99.90;;;;;;5004106;28;20207;-83
2021/01/11 03:39:29;;;;;;;47.47;29.47;;;4.60;99.90;;;;;;5017784;28;20179;-83
2021/01/11 03:41:55;;;;;;;42.00;26.97;;;4.60;99.90;;;;;;5003890;28;20194;-83
2021/01/11 03:44:20;;;;;;;42.07;27.00;;;4.60;99.90;;;;;;5003600;28;20254;-83
2021/01/11 03:46:46;;;;;;;47.77;29.80;;;4.70;99.90;;;;;;5002550;28;20201;-83
2021/01/11 03:49:11;;;;;;;49.20;30.33;;;4.70;99.90;;;;;;5021884;28;20167;-83
2021/01/11 03:51:37;;;;;;;48.47;30.33;;;4.60;99.90;;;;;;5005250;28;20190;-83
2021/01/11 03:54:03;;;;;;;46.60;26.77;;;4.60;99.90;;;;;;5000933;28;20180;-83
2021/01/11 03:56:28;;;;;;;52.63;29.10;;;4.60;99.90;;;;;;5018337;28;20611;-83
2021/01/11 03:58:54;;;;;;;45.50;27.30;;;4.60;99.90;;;;;;5018680;28;20179;-83
2021/01/11 04:01:19;;;;;;;43.30;26.77;;;4.60;99.90;;;;;;5016770;28;20262;-83
2021/01/11 04:03:45;;;;;;;48.53;29.10;;;4.60;99.90;;;;;;5003811;28;20250;-83
2021/01/11 04:06:11;;;;;;;48.20;26.17;;;4.60;99.90;;;;;;5018074;28;20176;-83
2021/01/11 04:08:36;;;;;;;43.77;27.97;;;4.60;99.90;;;;;;5002273;28;20210;-82
2021/01/11 04:11:02;;;;;;;56.70;32.17;;;4.60;99.90;;;;;;5004123;28;20594;-83
2021/01/11 04:13:27;;;;;;;43.33;26.37;;;4.70;99.90;;;;;;5003457;28;20182;-82
2021/01/11 04:15:53;;;;;;;44.60;28.33;;;4.70;99.90;;;;;;5003115;28;20199;-83
2021/01/11 04:18:19;;;;;;;44.77;27.30;;;4.60;99.90;;;;;;5001873;28;20187;-83
2021/01/11 04:20:44;;;;;;;48.50;29.53;;;4.70;99.90;;;;;;5001985;28;20181;-84
2021/01/11 04:23:10;;;;;;;47.90;25.60;;;4.70;99.90;;;;;;5004386;28;20215;-83
2021/01/11 04:25:36;;;;;;;51.83;27.50;;;4.70;99.90;;;;;;5001690;28;20544;-83
2021/01/11 04:28:04;;;;;;;51.73;29.63;;;4.70;99.90;;;;;;5019740;28;20433;-83
2021/01/11 04:30:30;;;;;;;48.47;27.53;;;4.70;99.90;;;;;;5017490;28;20534;-83
2021/01/11 04:32:55;;;;;;;49.93;29.50;;;4.70;99.90;;;;;;5002055;28;20422;-83
2021/01/11 04:35:23;;;;;;;51.37;28.77;;;4.80;99.90;;;;;;5003075;28;20477;-83
2021/01/11 04:37:49;;;;;;;42.00;26.60;;;4.70;99.90;;;;;;5002079;28;20211;-83
2021/01/11 04:40:15;;;;;;;53.60;30.10;;;4.70;99.90;;;;;;5016975;28;20590;-83
2021/01/11 04:42:46;;;;;;;48.53;30.53;;;4.70;99.90;;;;;;5003279;28;20588;-84
2021/01/11 04:45:15;;;;;;;55.20;29.07;;;4.70;99.90;;;;;;5017614;28;20179;-84
2021/01/11 04:47:41;;;;;;;50.93;28.43;;;4.70;99.90;;;;;;5001348;28;20477;-84
2021/01/11 04:50:08;;;;;;;58.50;29.63;;;4.70;99.90;;;;;;5003053;28;20413;-84
2021/01/11 04:52:34;;;;;;;52.33;29.17;;;4.60;99.90;;;;;;5017868;28;20506;-84
2021/01/11 04:55:05;;;;;;;42.80;27.90;;;4.60;99.90;;;;;;5000886;28;20584;-84
2021/01/11 04:57:38;;;;;;;47.77;27.53;;;4.60;99.90;;;;;;5017282;28;20829;-84
2021/01/11 05:00:09;;;;;;;42.53;24.30;;;4.70;99.90;;;;;;5018123;28;20464;-84
2021/01/11 05:03:02;;;;;;;43.33;26.70;;;4.70;99.90;;;;;;5017720;28;20462;-84
2021/01/11 05:05:31;;;;;;;43.33;25.60;;;4.70;99.90;;;;;;4997283;28;20423;-83
2021/01/11 05:07:57;;;;;;;42.87;26.30;;;4.70;99.90;;;;;;5001532;28;20413;-84
2021/01/11 05:10:27;;;;;;;50.43;27.17;;;4.70;99.90;;;;;;5002842;28;20402;-84
2021/01/11 05:13:01;;;;;;;43.40;26.70;;;4.70;99.90;;;;;;5016922;28;20431;-83
2021/01/11 05:15:29;;;;;;;40.07;23.93;;;4.70;99.90;;;;;;5001412;28;20919;-84
2021/01/11 05:17:55;;;;;;;38.40;23.17;;;4.70;99.90;;;;;;5016748;28;20833;-84
2021/01/11 05:20:26;;;;;;;36.60;22.80;;;4.70;99.90;;;;;;5017967;28;20406;-84
2021/01/11 05:22:57;;;;;;;41.13;23.77;;;4.70;99.90;;;;;;5001902;28;20489;-83
2021/01/11 05:25:25;;;;;;;41.07;24.53;;;4.70;99.90;;;;;;5000654;28;20461;-84
2021/01/11 05:28:14;;;;;;;41.90;24.00;;;4.70;99.90;;;;;;5017424;28;20926;-83
2021/01/11 05:30:45;;;;;;;34.20;21.20;;;4.70;99.90;;;;;;5002810;28;20417;-83
2021/01/11 05:33:18;;;;;;;33.83;21.30;;;4.70;99.90;;;;;;5001821;28;20418;-83
2021/01/11 05:35:45;;;;;;;40.13;25.17;;;4.70;99.90;;;;;;5000799;28;20442;-84
2021/01/11 05:38:19;;;;;;;41.53;25.47;;;4.60;99.90;;;;;;5017109;28;20433;-83
2021/01/11 05:40:46;;;;;;;37.47;21.63;;;4.60;99.90;;;;;;5000607;28;20410;-83
2021/01/11 05:43:20;;;;;;;40.90;25.30;;;4.60;99.90;;;;;;5001708;28;20992;-83
2021/01/11 05:45:46;;;;;;;36.63;22.50;;;4.60;99.90;;;;;;5000944;28;20442;-83
2021/01/11 05:48:13;;;;;;;43.93;24.70;;;4.70;99.90;;;;;;5001859;28;20926;-83
2021/01/11 05:50:40;;;;;;;45.83;25.93;;;4.70;99.90;;;;;;5002761;28;20179;-83
2021/01/11 05:53:26;;;;;;;42.47;26.53;;;4.70;99.90;;;;;;5000136;28;20750;-83
2021/01/11 05:55:55;;;;;;;42.47;26.93;;;4.70;99.90;;;;;;5001082;28;20458;-83
2021/01/11 05:58:23;;;;;;;45.20;26.83;;;4.70;99.90;;;;;;5000573;28;20446;-83
2021/01/11 06:00:49;;;;;;;38.87;24.90;;;4.70;99.90;;;;;;5001928;28;20545;-83
2021/01/11 06:03:16;;;;;;;41.00;24.77;;;4.70;99.90;;;;;;5017096;28;20407;-83
2021/01/11 06:05:42;;;;;;;39.90;25.27;;;4.70;99.90;;;;;;5000324;28;20939;-84
2021/01/11 06:08:16;;;;;;;38.93;26.07;;;4.60;99.90;;;;;;5002189;28;20406;-83
2021/01/11 06:10:44;;;;;;;39.43;24.17;;;4.60;99.90;;;;;;5002195;28;20524;-84
2021/01/11 06:13:11;;;;;;;43.43;24.80;;;4.60;99.90;;;;;;5001124;28;20406;-84
2021/01/11 06:15:38;;;;;;;37.60;23.37;;;4.60;99.90;;;;;;5000974;28;20413;-83
2021/01/11 06:18:12;;;;;;;39.63;23.87;;;4.70;99.90;;;;;;5006283;28;20418;-84
2021/01/11 06:20:46;;;;;;;36.47;21.30;;;4.70;99.90;;;;;;5027726;28;20428;-84
2021/01/11 06:23:25;;;;;;;37.93;21.23;;;4.70;99.90;;;;;;5027767;28;20425;-84
2021/01/11 06:25:50;;;;;;;35.37;24.10;;;4.70;99.90;;;;;;5015604;28;20409;-84
2021/01/11 06:28:27;;;;;;;36.57;22.77;;;4.70;99.90;;;;;;5030989;28;20421;-83
2021/01/11 06:30:53;;;;;;;41.03;23.50;;;4.60;99.90;;;;;;5031207;28;20186;-84
2021/01/11 06:33:25;;;;;;;34.37;20.10;;;4.60;99.90;;;;;;5011452;28;20426;-83
2021/01/11 06:35:54;;;;;;;32.47;21.07;;;4.60;99.90;;;;;;5029617;28;20197;-83
2021/01/11 06:38:28;;;;;;;33.93;20.20;;;4.60;99.90;;;;;;5015641;28;20436;-83
2021/01/11 06:41:02;;;;;;;34.87;21.53;;;4.60;99.90;;;;;;5015541;28;20413;-83
2021/01/11 06:43:41;;;;;;;31.77;20.77;;;4.60;99.90;;;;;;5015794;28;20433;-83
2021/01/11 06:46:07;;;;;;;32.23;19.60;;;4.50;99.90;;;;;;5014422;28;20409;-83
2021/01/11 06:48:34;;;;;;;36.07;19.80;;;4.50;99.90;;;;;;5014211;28;20765;-84
2021/01/11 06:51:10;;;;;;;31.07;19.20;;;4.50;99.90;;;;;;5015641;28;20575;-83
2021/01/11 06:53:36;;;;;;;32.33;19.57;;;4.50;99.90;;;;;;5015464;28;20432;-83
2021/01/11 06:56:10;;;;;;;26.33;16.73;;;4.40;99.90;;;;;;5015063;28;20480;-83
2021/01/11 06:58:39;;;;;;;22.40;15.20;;;4.40;99.90;;;;;;5015373;28;20414;-83
2021/01/11 07:01:09;;;;;;;28.13;16.53;;;4.30;99.90;;;;;;5015094;28;20493;-83
2021/01/11 07:03:49;;;;;;;30.57;16.90;;;4.30;99.90;;;;;;5015110;28;20776;-83
2021/01/11 07:06:41;;;;;;;30.93;17.70;;;4.30;99.90;;;;;;5014427;28;20447;-83
2021/01/11 07:09:13;;;;;;;28.40;19.23;;;4.30;99.90;;;;;;5014552;28;20854;-84
2021/01/11 07:11:43;;;;;;;28.07;15.10;;;4.20;99.90;;;;;;5015250;28;20532;-84
2021/01/11 07:14:10;;;;;;;28.70;18.30;;;4.20;99.90;;;;;;5013875;28;20472;-83
2021/01/11 07:16:44;;;;;;;23.87;15.30;;;4.20;99.90;;;;;;5014948;28;20499;-83
2021/01/11 07:19:14;;;;;;;25.23;16.23;;;4.20;99.90;;;;;;5015159;28;20448;-83
2021/01/11 07:21:41;;;;;;;28.23;15.43;;;4.20;99.90;;;;;;5015097;28;20429;-83
2021/01/11 07:24:08;;;;;;;26.10;17.27;;;4.20;99.90;;;;;;5029906;28;20432;-83
2021/01/11 07:26:35;;;;;;;29.10;17.83;;;4.20;99.90;;;;;;5030171;28;20429;-83
2021/01/11 07:29:07;;;;;;;27.07;16.43;;;4.10;99.90;;;;;;5030100;28;20800;-83
2021/01/11 07:31:39;;;;;;;23.17;15.17;;;4.10;99.90;;;;;;5030096;28;20578;-83
2021/01/11 07:34:12;;;;;;;25.90;14.87;;;4.00;99.90;;;;;;5029964;28;20805;-84
2021/01/11 07:36:43;;;;;;;19.87;13.50;;;4.00;99.90;;;;;;5014311;28;20461;-83
2021/01/11 07:39:13;;;;;;;24.00;15.97;;;4.00;99.90;;;;;;5013115;28;20467;-84
2021/01/11 07:41:40;;;;;;;24.87;15.90;;;4.00;99.90;;;;;;5014686;28;20414;-84
2021/01/11 07:44:14;;;;;;;19.20;11.93;;;4.00;99.90;;;;;;5013453;28;20932;-84
2021/01/11 07:46:39;;;;;;;26.27;15.13;;;3.90;99.90;;;;;;5013355;28;20467;-84
2021/01/11 07:49:13;;;;;;;20.00;11.97;;;3.90;99.90;;;;;;5014559;28;20444;-83
2021/01/11 07:51:39;;;;;;;23.37;16.07;;;3.90;99.90;;;;;;5014556;28;20292;-84
2021/01/11 07:54:18;;;;;;;23.80;14.87;;;3.90;99.90;;;;;;5014044;28;20405;-83
2021/01/11 07:56:46;;;;;;;21.90;13.70;;;3.90;99.90;;;;;;5013084;28;20965;-83
2021/01/11 07:59:12;;;;;;;23.27;14.13;;;3.90;99.90;;;;;;5014343;28;20445;-84
2021/01/11 08:01:40;;;;;;;19.63;14.70;;;4.00;99.90;;;;;;5014170;28;20861;-83
2021/01/11 08:04:06;;;;;;;23.40;15.20;;;3.90;99.90;;;;;;5014519;28;20182;-83
2021/01/11 08:06:44;;;;;;;24.40;13.67;;;3.90;99.90;;;;;;5013024;28;20987;-83
2021/01/11 08:09:12;;;;;;;20.23;14.30;;;3.90;99.90;;;;;;5013828;28;20622;-83
2021/01/11 08:11:37;;;;;;;25.07;14.90;;;3.90;99.90;;;;;;5014066;28;20941;-83
2021/01/11 08:14:07;;;;;;;20.30;13.63;;;3.80;99.90;;;;;;5012854;28;20421;-84
2021/01/11 08:16:35;;;;;;;19.57;11.30;;;3.90;99.90;;;;;;5013979;28;20215;-84
2021/01/11 08:19:08;;;;;;;20.10;12.50;;;3.80;99.90;;;;;;5014015;28;20495;-84
2021/01/11 08:21:34;;;;;;;24.23;14.73;;;3.80;99.90;;;;;;5012652;28;20425;-83
2021/01/11 08:24:05;;;;;;;23.63;14.87;;;3.70;99.90;;;;;;5013682;28;20799;-84
2021/01/11 08:26:33;;;;;;;25.00;14.47;;;3.70;99.90;;;;;;5009730;28;20421;-83
2021/01/11 08:28:59;;;;;;;23.13;16.53;;;3.70;99.90;;;;;;5013887;28;20418;-84
2021/01/11 08:31:26;;;;;;;24.13;15.50;;;3.70;99.90;;;;;;5013764;28;20772;-83
2021/01/11 08:33:53;;;;;;;20.70;13.30;;;3.70;99.90;;;;;;5013684;28;20425;-83
2021/01/11 08:36:27;;;;;;;24.53;13.90;;;3.70;99.90;;;;;;5012379;28;20969;-84
2021/01/11 08:39:16;;;;;;;21.33;15.53;;;3.70;99.90;;;;;;5013372;28;20509;-84
2021/01/11 08:41:50;;;;;;;22.13;13.60;;;3.80;99.90;;;;;;5013579;28;20506;-84
2021/01/11 08:44:31;;;;;;;23.50;14.40;;;3.80;99.90;;;;;;5013653;28;20421;-84
2021/01/11 08:47:09;;;;;;;22.80;14.83;;;3.80;99.90;;;;;;5011525;28;20423;-84
2021/01/11 08:49:53;;;;;;;24.40;16.03;;;3.70;99.90;;;;;;5013505;28;20805;-84
2021/01/11 08:52:19;;;;;;;26.90;16.03;;;3.80;99.90;;;;;;5012281;28;20445;-83
2021/01/11 08:54:44;;;;;;;19.77;13.60;;;3.80;99.90;;;;;;5013525;28;20932;-83
2021/01/11 08:57:13;;;;;;;22.77;15.30;;;3.80;99.90;;;;;;5014494;28;20249;-83
2021/01/11 08:59:48;;;;;;;22.50;14.63;;;3.80;99.90;;;;;;5011995;28;20177;-83
2021/01/11 09:02:25;;;;;;;25.00;16.67;;;3.80;99.90;;;;;;5002569;28;20429;-83
2021/01/11 09:04:50;;;;;;;22.80;14.73;;;3.80;99.90;;;;;;5016281;28;20433;-84
2021/01/11 09:07:25;;;;;;;21.83;14.70;;;3.80;99.90;;;;;;5019247;28;20414;-82
2021/01/11 09:09:51;;;;;;;21.37;14.80;;;3.60;99.90;;;;;;5015920;28;20205;-83
2021/01/11 09:12:31;;;;;;;26.33;16.70;;;3.70;99.90;;;;;;5002157;28;20410;-83
2021/01/11 09:14:57;;;;;;;28.63;19.20;;;3.70;99.90;;;;;;5002260;28;20212;-82
2021/01/11 09:17:30;;;;;;;23.80;16.23;;;3.70;99.90;;;;;;5016509;28;20800;-83
2021/01/11 09:20:00;;;;;;;22.47;14.20;;;3.70;99.90;;;;;;5016901;28;20809;-82
2021/01/11 09:22:42;;;;;;;27.30;18.50;;;3.70;99.90;;;;;;5000808;28;20434;-83
2021/01/11 09:25:10;;;;;;;26.23;15.93;;;3.80;99.90;;;;;;5016178;28;20474;-82
2021/01/11 09:27:38;;;;;;;36.63;20.10;;;3.80;99.90;;;;;;5008314;28;20460;-83
2021/01/11 09:30:06;;;;;;;28.37;17.70;;;3.70;99.90;;;;;;5000988;28;20973;-83
2021/01/11 09:32:32;;;;;;;31.43;20.30;;;3.80;99.90;;;;;;5001159;28;20411;-83
2021/01/11 09:34:58;;;;;;;36.27;20.97;;;3.80;99.90;;;;;;5016611;28;20423;-82
2021/01/11 09:37:23;;;;;;;29.87;19.93;;;3.80;99.90;;;;;;5021241;28;20221;-83
2021/01/11 09:39:49;;;;;;;28.90;18.20;;;3.80;99.90;;;;;;5015444;28;20194;-84
2021/01/11 09:42:14;;;;;;;30.60;20.20;;;3.90;99.90;;;;;;5001425;28;20176;-83
2021/01/11 09:44:42;;;;;;;29.93;18.30;;;3.90;99.90;;;;;;5012903;28;21164;-83
2021/01/11 09:47:08;;;;;;;36.43;19.43;;;3.90;99.90;;;;;;5016193;28;20180;-82
2021/01/11 09:49:33;;;;;;;36.47;21.97;;;3.90;99.90;;;;;;5003065;28;20424;-83
2021/01/11 09:51:59;;;;;;;35.33;20.60;;;3.80;99.90;;;;;;5015926;28;20180;-83
2021/01/11 09:54:25;;;;;;;30.40;18.60;;;3.90;99.90;;;;;;5000241;28;20559;-83
2021/01/11 09:56:51;;;;;;;44.07;24.93;;;3.90;99.90;;;;;;5015359;28;20489;-83
2021/01/11 09:59:16;;;;;;;37.70;20.27;;;3.90;99.90;;;;;;5019407;28;20181;-83
2021/01/11 10:01:47;;;;;;;36.97;21.70;;;3.90;99.90;;;;;;5004543;28;20227;-83
2021/01/11 10:04:15;;;;;;;41.97;24.27;;;4.00;99.90;;;;;;5020072;28;20407;-83
2021/01/11 10:06:43;;;;;;;38.57;22.43;;;4.00;99.90;;;;;;5003951;28;20433;-83
2021/01/11 10:09:11;;;;;;;35.90;21.87;;;4.00;99.90;;;;;;5021024;28;20421;-83
2021/01/11 10:11:37;;;;;;;36.90;19.57;;;4.00;99.90;;;;;;5020265;28;20457;-82
2021/01/11 10:14:05;;;;;;;45.53;24.10;;;3.90;99.90;;;;;;5004327;28;20914;-83
2021/01/11 10:16:30;;;;;;;32.23;20.33;;;3.90;99.90;;;;;;5004848;28;20499;-82
2021/01/11 10:18:56;;;;;;;32.43;18.07;;;3.90;99.90;;;;;;5005011;28;20442;-83
2021/01/11 10:21:22;;;;;;;39.20;20.40;;;3.90;99.90;;;;;;5004263;28;20205;-82
2021/01/11 10:23:47;;;;;;;34.63;20.73;;;3.90;99.90;;;;;;5005532;28;20171;-82
2021/01/11 10:26:22;;;;;;;31.37;17.20;;;4.00;99.90;;;;;;5004464;28;20469;-82
2021/01/11 10:28:51;;;;;;;38.60;21.70;;;4.00;99.90;;;;;;5003876;28;20192;-82
2021/01/11 10:31:18;;;;;;;37.50;19.80;;;4.00;99.90;;;;;;5004915;28;20417;-83
2021/01/11 10:33:47;;;;;;;33.03;18.13;;;4.00;99.90;;;;;;5005612;28;20530;-83
2021/01/11 10:36:14;;;;;;;31.60;18.57;;;4.00;99.90;;;;;;5003022;28;20447;-83
2021/01/11 10:38:41;;;;;;;34.47;19.23;;;4.00;99.90;;;;;;5003948;28;20505;-83
2021/01/11 10:41:07;;;;;;;33.73;19.33;;;4.00;99.90;;;;;;5005644;28;20463;-83
2021/01/11 10:43:33;;;;;;;29.93;17.60;;;4.00;99.90;;;;;;5018894;28;20425;-83
2021/01/11 10:46:01;;;;;;;34.53;19.17;;;4.00;99.90;;;;;;5000510;28;20505;-81
2021/01/11 10:48:28;;;;;;;33.97;19.47;;;4.00;99.90;;;;;;5002405;28;20430;-82
2021/01/11 10:50:54;;;;;;;33.17;17.13;;;4.10;99.90;;;;;;5004057;28;20418;-82
2021/01/11 10:53:19;;;;;;;26.00;15.40;;;4.10;99.90;;;;;;5004306;28;20472;-83
2021/01/11 10:55:45;;;;;;;32.13;17.63;;;4.10;99.90;;;;;;5017720;28;20422;-84
2021/01/11 10:58:11;;;;;;;33.67;16.33;;;4.10;99.90;;;;;;5002588;28;20190;-83
2021/01/11 11:00:37;;;;;;;33.43;19.40;;;4.10;99.90;;;;;;5018575;28;20264;-82
2021/01/11 11:03:08;;;;;;;27.13;17.73;;;4.10;99.90;;;;;;5003924;28;20518;-84
2021/01/11 11:05:34;;;;;;;30.53;19.07;;;4.00;99.90;;;;;;5002946;28;20418;-84
2021/01/11 11:07:59;;;;;;;30.43;14.87;;;4.10;99.90;;;;;;5002933;28;20824;-85
2021/01/11 11:10:25;;;;;;;33.70;19.40;;;4.10;99.90;;;;;;5003291;28;20426;-83
2021/01/11 11:12:51;;;;;;;28.13;16.70;;;4.10;99.90;;;;;;5003902;28;20237;-83
2021/01/11 11:15:17;;;;;;;32.40;19.60;;;4.10;99.90;;;;;;5029369;28;20691;-83
2021/01/11 11:17:43;;;;;;;29.77;18.90;;;4.10;99.90;;;;;;5029076;28;20497;-82
2021/01/11 11:20:09;;;;;;;29.30;18.57;;;4.10;99.90;;;;;;5014121;28;20748;-82
2021/01/11 11:22:35;;;;;;;30.93;18.33;;;4.10;99.90;;;;;;5014001;28;20179;-82
2021/01/11 11:25:06;;;;;;;37.00;19.90;;;4.00;99.90;;;;;;5027368;28;20422;-87
2021/01/11 11:27:35;;;;;;;31.67;18.03;;;4.00;99.90;;;;;;5014568;28;20414;-86
2021/01/11 11:30:03;;;;;;;33.33;20.10;;;4.00;99.90;;;;;;5029178;28;20417;-85
2021/01/11 11:32:30;;;;;;;32.67;19.17;;;4.00;99.90;;;;;;5029085;28;20523;-83
2021/01/11 11:34:56;;;;;;;30.37;17.80;;;4.00;99.90;;;;;;5013735;28;20464;-84
2021/01/11 11:37:21;;;;;;;35.63;20.87;;;4.00;99.90;;;;;;5012612;28;20488;-84
2021/01/11 11:39:47;;;;;;;27.77;16.90;;;4.00;99.90;;;;;;5008658;28;20435;-82
2021/01/11 11:42:13;;;;;;;34.60;18.33;;;4.10;99.90;;;;;;5013796;28;20182;-82
2021/01/11 11:44:38;;;;;;;32.80;18.73;;;4.10;99.90;;;;;;5008944;28;20199;-84
2021/01/11 11:47:04;;;;;;;30.13;18.23;;;4.10;99.90;;;;;;4993949;28;20178;-82
2021/01/11 11:49:30;;;;;;;31.43;19.70;;;4.10;99.90;;;;;;4993953;28;20187;-83
2021/01/11 11:51:55;;;;;;;31.50;21.07;;;4.10;99.90;;;;;;5008826;28;20710;-83
2021/01/11 11:54:21;;;;;;;36.30;20.83;;;4.10;99.90;;;;;;5008471;28;20175;-83
2021/01/11 11:56:47;;;;;;;29.90;19.17;;;4.20;99.90;;;;;;4992097;28;20211;-83
2021/01/11 11:59:13;;;;;;;28.53;17.67;;;4.20;99.90;;;;;;5008782;28;20176;-84
2021/01/11 12:01:40;;;;;;;30.03;18.50;;;4.10;99.90;;;;;;4993445;28;20462;-82
2021/01/11 12:04:07;;;;;;;31.77;20.30;;;4.20;99.90;;;;;;4994406;28;20445;-82
2021/01/11 12:06:40;;;;;;;32.10;21.07;;;4.10;99.90;;;;;;4994614;28;20502;-82
2021/01/11 12:09:06;;;;;;;36.87;21.10;;;4.10;99.90;;;;;;4993895;28;20466;-82
2021/01/11 12:11:41;;;;;;;32.37;19.30;;;4.00;99.90;;;;;;5007932;28;20418;-84
2021/01/11 12:14:07;;;;;;;31.27;19.80;;;4.10;99.90;;;;;;5013102;28;20418;-83
2021/01/11 12:16:33;;;;;;;27.67;16.67;;;4.10;99.90;;;;;;5013668;28;20981;-84
2021/01/11 12:18:58;;;;;;;27.97;15.67;;;4.10;99.90;;;;;;5013935;28;20167;-84
2021/01/11 12:21:29;;;;;;;29.03;17.80;;;4.00;99.90;;;;;;5011888;28;20178;-83
2021/01/11 12:23:54;;;;;;;28.27;17.57;;;4.10;99.90;;;;;;5012881;28;20187;-84
2021/01/11 12:26:20;;;;;;;37.00;19.60;;;4.00;99.90;;;;;;5006230;28;20437;-84
2021/01/11 12:28:45;;;;;;;27.17;17.27;;;4.00;99.90;;;;;;5005751;28;20182;-84
2021/01/11 12:31:11;;;;;;;24.10;15.27;;;4.10;99.90;;;;;;5002532;28;20175;-84
2021/01/11 12:33:36;;;;;;;28.70;16.83;;;4.10;99.90;;;;;;5003790;28;20190;-83
2021/01/11 12:36:02;;;;;;;29.73;18.60;;;4.10;99.90;;;;;;5019652;28;20205;-84
2021/01/11 12:38:28;;;;;;;24.33;16.73;;;4.20;99.90;;;;;;5001042;28;20188;-83
2021/01/11 12:40:53;;;;;;;29.67;17.30;;;4.10;99.90;;;;;;5001212;28;20194;-83
2021/01/11 12:43:19;;;;;;;26.97;17.27;;;4.10;99.90;;;;;;5018102;28;20171;-83